Thunder radar more information blitzortung!


Radar de pluja more information rain snow radar


Visita la nostra xarxa de llocs de meteo:

Template documentation
and downloads

And another site



Extreme low temperature From: 13-12-2017 09:00 Until: 09:59 warning for: Extreme low temperature Level: Yellow info button

Pagina Historial Weather Underground text

Diari Resum Juliol 17, 2017 Unitats:  Tant    Imperial   Mètric
« Previous Dia
SegĂźent Dia »
Diari Setmana Mensual Anual Personalitzada
  Maxima: Minima: Media:
Temperatura: 88.7 °F /  31.5 °C 68.9 °F /  20.5 °C 80.4 °F /  26.9 °C
Punt de rosada: 66.4 °F /  19.1 °C 52.9 °F /  11.6 °C 58.3 °F /  14.6 °C
Humitat: 74 % 31 % 49 %
Wind Speed: 17.3 mph /  27.8 km/h - 6 mph /  9.6 km/h
RĂ fegues de vent: 17.3 mph /  27.8 km/h - -
Vent:- - ESE
Pression baro: 30.1 in /  1017.8 hPa 30 in /  1014.8 hPa -
Precipitacions: 0 in /  0.0 mm    
Historical Graphs
 
 
Dades de taula per Juliol 17, 2017
Temps Temperatura Punt de rosada Pression baro Vent Wind Speed RĂ fegues de vent Humitat Rainfall Rate (Hourly)
00:00 71.1 °F /  21.7 °C 62.1 °F /  16.7 °C 30 in /  1015.8 hPa Calm   2 mph /  3.2 km/h 73 % 0 in /  0.0 mm
00:02 73.8 °F /  23.2 °C 60.8 °F /  16.0 °C 30.1 in /  1017.8 hPa WSW 3.1 mph /  5.0 km/h 3.1 mph /  5.0 km/h 64 % 0 in /  0.0 mm
00:07 73.8 °F /  23.2 °C 61.3 °F /  16.3 °C 30 in /  1016.8 hPa WSW 2.4 mph /  3.9 km/h 2.4 mph /  3.9 km/h 65 % 0 in /  0.0 mm
00:10 70.9 °F /  21.6 °C 61.9 °F /  16.6 °C 30 in /  1015.8 hPa Calm   2 mph /  3.2 km/h 73 % 0 in /  0.0 mm
00:20 70.7 °F /  21.5 °C 61.5 °F /  16.4 °C 30 in /  1015.8 hPa SW 1 mph /  1.6 km/h 1 mph /  1.6 km/h 73 % 0 in /  0.0 mm
00:30 70.9 °F /  21.6 °C 61.9 °F /  16.6 °C 30 in /  1016.8 hPa South 1 mph /  1.6 km/h 2 mph /  3.2 km/h 73 % 0 in /  0.0 mm
00:40 70.9 °F /  21.6 °C 61.9 °F /  16.6 °C 30 in /  1016.8 hPa ENE 1 mph /  1.6 km/h 2 mph /  3.2 km/h 73 % 0 in /  0.0 mm
00:50 70.7 °F /  21.5 °C 61.2 °F /  16.2 °C 30 in /  1016.8 hPa NE 1 mph /  1.6 km/h 2 mph /  3.2 km/h 72 % 0 in /  0.0 mm
01:00 70.5 °F /  21.4 °C 60.6 °F /  15.9 °C 30 in /  1016.8 hPa NE 2 mph /  3.2 km/h 3 mph /  4.8 km/h 71 % 0 in /  0.0 mm
01:10 70.2 °F /  21.2 °C 60.3 °F /  15.7 °C 30 in /  1016.8 hPa NNE 1 mph /  1.6 km/h 3 mph /  4.8 km/h 71 % 0 in /  0.0 mm
01:20 69.8 °F /  21.0 °C 60.1 °F /  15.6 °C 30 in /  1016.8 hPa Calm   3 mph /  4.8 km/h 71 % 0 in /  0.0 mm
01:30 69.4 °F /  20.8 °C 60.1 °F /  15.6 °C 30 in /  1016.8 hPa NNE 1 mph /  1.6 km/h 2 mph /  3.2 km/h 72 % 0 in /  0.0 mm
01:40 69.1 °F /  20.6 °C 59.7 °F /  15.4 °C 30 in /  1016.8 hPa NE 1 mph /  1.6 km/h 2 mph /  3.2 km/h 72 % 0 in /  0.0 mm
01:50 69.1 °F /  20.6 °C 59.7 °F /  15.4 °C 30 in /  1016.8 hPa NE 1 mph /  1.6 km/h 2 mph /  3.2 km/h 72 % 0 in /  0.0 mm
02:00 68.9 °F /  20.5 °C 59.5 °F /  15.3 °C 30.1 in /  1017.8 hPa Calm   2 mph /  3.2 km/h 72 % 0 in /  0.0 mm
02:10 69.1 °F /  20.6 °C 59.7 °F /  15.4 °C 30.1 in /  1017.8 hPa Calm   1 mph /  1.6 km/h 72 % 0 in /  0.0 mm
02:20 69.1 °F /  20.6 °C 59.7 °F /  15.4 °C 30.1 in /  1017.8 hPa Calm   1 mph /  1.6 km/h 72 % 0 in /  0.0 mm
02:30 70.2 °F /  21.2 °C 60.6 °F /  15.9 °C 30.1 in /  1017.8 hPa Calm     72 % 0 in /  0.0 mm
02:40 70.7 °F /  21.5 °C 60.8 °F /  16.0 °C 30.1 in /  1017.8 hPa WSW 1 mph /  1.6 km/h   71 % 0 in /  0.0 mm
02:50 72.3 °F /  22.4 °C 62.4 °F /  16.9 °C 30.1 in /  1017.8 hPa NNW 2 mph /  3.2 km/h 2 mph /  3.2 km/h 71 % 0 in /  0.0 mm
03:00 72.9 °F /  22.7 °C 63 °F /  17.2 °C 30.1 in /  1017.8 hPa NNE 2 mph /  3.2 km/h 3 mph /  4.8 km/h 71 % 0 in /  0.0 mm
03:10 73.4 °F /  23.0 °C 63 °F /  17.2 °C 30.1 in /  1017.8 hPa NE 1 mph /  1.6 km/h 3 mph /  4.8 km/h 70 % 0 in /  0.0 mm
03:20 73.8 °F /  23.2 °C 63.3 °F /  17.4 °C 30.1 in /  1017.8 hPa NE 1 mph /  1.6 km/h 3 mph /  4.8 km/h 70 % 0 in /  0.0 mm
03:30 73.9 °F /  23.3 °C 63.1 °F /  17.3 °C 30.1 in /  1017.8 hPa NE 3 mph /  4.8 km/h 4 mph /  6.4 km/h 69 % 0 in /  0.0 mm
03:40 74.7 °F /  23.7 °C 64.2 °F /  17.9 °C 30.1 in /  1017.8 hPa ENE 2 mph /  3.2 km/h 3 mph /  4.8 km/h 70 % 0 in /  0.0 mm
03:50 74.7 °F /  23.7 °C 64.2 °F /  17.9 °C 30.1 in /  1017.8 hPa ENE 1 mph /  1.6 km/h 3 mph /  4.8 km/h 70 % 0 in /  0.0 mm
04:00 75.6 °F /  24.2 °C 64.8 °F /  18.2 °C 30.1 in /  1017.8 hPa East 3 mph /  4.8 km/h 3 mph /  4.8 km/h 69 % 0 in /  0.0 mm
04:10 74.8 °F /  23.8 °C 64.8 °F /  18.2 °C 30.1 in /  1017.8 hPa ESE 3 mph /  4.8 km/h 4 mph /  6.4 km/h 71 % 0 in /  0.0 mm
04:30 76.6 °F /  24.8 °C 65.7 °F /  18.7 °C 30.1 in /  1017.8 hPa ESE 3 mph /  4.8 km/h 4 mph /  6.4 km/h 69 % 0 in /  0.0 mm
04:40 76.8 °F /  24.9 °C 65.8 °F /  18.8 °C 30.1 in /  1017.8 hPa East 2 mph /  3.2 km/h 3 mph /  4.8 km/h 69 % 0 in /  0.0 mm
04:50 77 °F /  25.0 °C 65.1 °F /  18.4 °C 30.1 in /  1017.8 hPa ESE 2 mph /  3.2 km/h 4 mph /  6.4 km/h 67 % 0 in /  0.0 mm
05:00 78.6 °F /  25.9 °C 66.4 °F /  19.1 °C 30.1 in /  1017.8 hPa SE 3 mph /  4.8 km/h 5 mph /  8.0 km/h 66 % 0 in /  0.0 mm
05:10 79 °F /  26.1 °C 65.3 °F /  18.5 °C 30.1 in /  1017.8 hPa ESE 5 mph /  8.0 km/h 5 mph /  8.0 km/h 63 % 0 in /  0.0 mm
05:20 79 °F /  26.1 °C 64.8 °F /  18.2 °C 30.1 in /  1017.8 hPa East 3 mph /  4.8 km/h 4 mph /  6.4 km/h 62 % 0 in /  0.0 mm
05:30 79.3 °F /  26.3 °C 65.1 °F /  18.4 °C 30 in /  1016.8 hPa East 1 mph /  1.6 km/h 4 mph /  6.4 km/h 62 % 0 in /  0.0 mm
05:40 81.1 °F /  27.3 °C 65.8 °F /  18.8 °C 30.1 in /  1017.8 hPa East 2 mph /  3.2 km/h 5 mph /  8.0 km/h 60 % 0 in /  0.0 mm
10:52 81 °F /  27.2 °C 64.2 °F /  17.9 °C 30.1 in /  1017.8 hPa East 4 mph /  6.4 km/h 4 mph /  6.4 km/h 57 % 0 in /  0.0 mm
10:58 81.3 °F /  27.4 °C 65.1 °F /  18.4 °C 30.1 in /  1017.8 hPa ENE 5.8 mph /  9.3 km/h 5.8 mph /  9.3 km/h 58 % 0 in /  0.0 mm
11:03 81.1 °F /  27.3 °C 64 °F /  17.8 °C 30.1 in /  1017.8 hPa SSW 5.8 mph /  9.3 km/h 5.8 mph /  9.3 km/h 56 % 0 in /  0.0 mm
11:08 81.7 °F /  27.6 °C 64.6 °F /  18.1 °C 30.1 in /  1017.8 hPa ENE 3.8 mph /  6.1 km/h 3.8 mph /  6.1 km/h 56 % 0 in /  0.0 mm
11:13 82 °F /  27.8 °C 63.9 °F /  17.7 °C 30.1 in /  1017.8 hPa ENE 8.5 mph /  13.7 km/h 8.5 mph /  13.7 km/h 54 % 0 in /  0.0 mm
11:18 81.9 °F /  27.7 °C 63.7 °F /  17.6 °C 30.1 in /  1017.8 hPa East 3.5 mph /  5.6 km/h 3.5 mph /  5.6 km/h 54 % 0 in /  0.0 mm
11:23 82.4 °F /  28.0 °C 63.5 °F /  17.5 °C 30.1 in /  1017.8 hPa NE 5.8 mph /  9.3 km/h 5.8 mph /  9.3 km/h 53 % 0 in /  0.0 mm
11:28 82.8 °F /  28.2 °C 63.9 °F /  17.7 °C 30.1 in /  1017.8 hPa East 6.9 mph /  11.1 km/h 6.9 mph /  11.1 km/h 53 % 0 in /  0.0 mm
11:29 82.8 °F /  28.2 °C 63.9 °F /  17.7 °C 30.1 in /  1017.8 hPa ENE 6.9 mph /  11.1 km/h 6.9 mph /  11.1 km/h 53 % 0 in /  0.0 mm
11:34 82.8 °F /  28.2 °C 63.3 °F /  17.4 °C 30.1 in /  1017.8 hPa ENE 6.9 mph /  11.1 km/h 6.9 mph /  11.1 km/h 52 % 0 in /  0.0 mm
11:39 82.9 °F /  28.3 °C 63.5 °F /  17.5 °C 30.1 in /  1017.8 hPa ENE 7.6 mph /  12.2 km/h 7.6 mph /  12.2 km/h 52 % 0 in /  0.0 mm
11:44 82.6 °F /  28.1 °C 63.1 °F /  17.3 °C 30.1 in /  1017.8 hPa SE 5.8 mph /  9.3 km/h 5.8 mph /  9.3 km/h 52 % 0 in /  0.0 mm
11:49 83.1 °F /  28.4 °C 63.1 °F /  17.3 °C 30.1 in /  1017.8 hPa ESE 8.1 mph /  13.0 km/h 8.1 mph /  13.0 km/h 51 % 0 in /  0.0 mm
11:54 83.7 °F /  28.7 °C 64.2 °F /  17.9 °C 30.1 in /  1017.8 hPa North 6.9 mph /  11.1 km/h 6.9 mph /  11.1 km/h 52 % 0 in /  0.0 mm
11:59 83.8 °F /  28.8 °C 63.1 °F /  17.3 °C 30.1 in /  1017.8 hPa ESE 8.1 mph /  13.0 km/h 8.1 mph /  13.0 km/h 50 % 0 in /  0.0 mm
12:04 83.8 °F /  28.8 °C 63.9 °F /  17.7 °C 30.1 in /  1017.8 hPa ENE 9.2 mph /  14.8 km/h 9.2 mph /  14.8 km/h 51 % 0 in /  0.0 mm
12:09 84.4 °F /  29.1 °C 63.1 °F /  17.3 °C 30.1 in /  1017.8 hPa East 5.8 mph /  9.3 km/h 5.8 mph /  9.3 km/h 49 % 0 in /  0.0 mm
12:14 84.2 °F /  29.0 °C 61.9 °F /  16.6 °C 30.1 in /  1017.8 hPa ENE 10.4 mph /  16.7 km/h 10.4 mph /  16.7 km/h 47 % 0 in /  0.0 mm
12:16 84.4 °F /  29.1 °C 60.6 °F /  15.9 °C 30.1 in /  1017.8 hPa ESE 10.4 mph /  16.7 km/h 10.4 mph /  16.7 km/h 45 % 0 in /  0.0 mm
12:21 84.7 °F /  29.3 °C 59.7 °F /  15.4 °C 30.1 in /  1017.8 hPa SSE 11.5 mph /  18.5 km/h 11.5 mph /  18.5 km/h 43 % 0 in /  0.0 mm
12:26 85.8 °F /  29.9 °C 57.9 °F /  14.4 °C 30.1 in /  1017.8 hPa East 5.9 mph /  9.5 km/h 5.9 mph /  9.5 km/h 39 % 0 in /  0.0 mm
12:31 85.6 °F /  29.8 °C 58.5 °F /  14.7 °C 30.1 in /  1017.8 hPa SE 9.8 mph /  15.8 km/h 9.8 mph /  15.8 km/h 40 % 0 in /  0.0 mm
12:36 86 °F /  30.0 °C 58.8 °F /  14.9 °C 30.1 in /  1017.8 hPa NE 9.2 mph /  14.8 km/h 9.2 mph /  14.8 km/h 40 % 0 in /  0.0 mm
12:41 86 °F /  30.0 °C 57.4 °F /  14.1 °C 30 in /  1016.8 hPa ENE 10.4 mph /  16.7 km/h 10.4 mph /  16.7 km/h 38 % 0 in /  0.0 mm
12:46 85.8 °F /  29.9 °C 56.5 °F /  13.6 °C 30 in /  1016.8 hPa ESE 8.1 mph /  13.0 km/h 8.1 mph /  13.0 km/h 37 % 0 in /  0.0 mm
12:51 85.3 °F /  29.6 °C 56.1 °F /  13.4 °C 30.1 in /  1017.8 hPa ESE 5.8 mph /  9.3 km/h 5.8 mph /  9.3 km/h 37 % 0 in /  0.0 mm
12:56 85.1 °F /  29.5 °C 55.9 °F /  13.3 °C 30.1 in /  1017.8 hPa East 13.8 mph /  22.2 km/h 13.8 mph /  22.2 km/h 37 % 0 in /  0.0 mm
13:01 85.8 °F /  29.9 °C 56.5 °F /  13.6 °C 30.1 in /  1017.8 hPa ENE 9.2 mph /  14.8 km/h 9.2 mph /  14.8 km/h 37 % 0 in /  0.0 mm
13:06 85.6 °F /  29.8 °C 55.6 °F /  13.1 °C 30.1 in /  1017.8 hPa ESE 12.7 mph /  20.4 km/h 12.7 mph /  20.4 km/h 36 % 0 in /  0.0 mm
13:11 85.6 °F /  29.8 °C 55.6 °F /  13.1 °C 30.1 in /  1017.8 hPa ESE 9.2 mph /  14.8 km/h 9.2 mph /  14.8 km/h 36 % 0 in /  0.0 mm
13:16 85.3 °F /  29.6 °C 54.5 °F /  12.5 °C 30.1 in /  1017.8 hPa ESE 15 mph /  24.1 km/h 15 mph /  24.1 km/h 35 % 0 in /  0.0 mm
13:21 85.5 °F /  29.7 °C 54.7 °F /  12.6 °C 30.1 in /  1017.8 hPa East 9 mph /  14.5 km/h 15 mph /  24.1 km/h 35 % 0 in /  0.0 mm
13:26 86 °F /  30.0 °C 54.3 °F /  12.4 °C 30.1 in /  1017.8 hPa ESE 9.2 mph /  14.8 km/h 9.2 mph /  14.8 km/h 34 % 0 in /  0.0 mm
13:32 85.5 °F /  29.7 °C 54.7 °F /  12.6 °C 30.1 in /  1017.8 hPa SSE 9.2 mph /  14.8 km/h 9.2 mph /  14.8 km/h 35 % 0 in /  0.0 mm
13:37 85.6 °F /  29.8 °C 54.9 °F /  12.7 °C 30.1 in /  1017.8 hPa ESE 13 mph /  20.9 km/h 13 mph /  20.9 km/h 35 % 0 in /  0.0 mm
13:42 85.8 °F /  29.9 °C 55.8 °F /  13.2 °C 30.1 in /  1017.8 hPa NNE 12.7 mph /  20.4 km/h 12.7 mph /  20.4 km/h 36 % 0 in /  0.0 mm
13:47 85.6 °F /  29.8 °C 55.6 °F /  13.1 °C 30.1 in /  1017.8 hPa SE 15.9 mph /  25.6 km/h 15.9 mph /  25.6 km/h 36 % 0 in /  0.0 mm
13:52 85.6 °F /  29.8 °C 55.6 °F /  13.1 °C 30.1 in /  1017.8 hPa SE 16.1 mph /  25.9 km/h 16.1 mph /  25.9 km/h 36 % 0 in /  0.0 mm
13:57 85.3 °F /  29.6 °C 56.1 °F /  13.4 °C 30.1 in /  1017.8 hPa ESE 12.8 mph /  20.6 km/h 12.8 mph /  20.6 km/h 37 % 0 in /  0.0 mm
14:02 85.3 °F /  29.6 °C 56.1 °F /  13.4 °C 30.1 in /  1017.8 hPa ENE 12.7 mph /  20.4 km/h 12.7 mph /  20.4 km/h 37 % 0 in /  0.0 mm
14:07 85.3 °F /  29.6 °C 56.8 °F /  13.8 °C 30.1 in /  1017.8 hPa ESE 12.7 mph /  20.4 km/h 12.7 mph /  20.4 km/h 38 % 0 in /  0.0 mm
14:12 85.8 °F /  29.9 °C 57.4 °F /  14.1 °C 30.1 in /  1017.8 hPa ESE 13.8 mph /  22.2 km/h 13.8 mph /  22.2 km/h 38 % 0 in /  0.0 mm
14:17 85.6 °F /  29.8 °C 57 °F /  13.9 °C 30.1 in /  1017.8 hPa SE 10.5 mph /  16.9 km/h 10.5 mph /  16.9 km/h 38 % 0 in /  0.0 mm
14:22 85.6 °F /  29.8 °C 57 °F /  13.9 °C 30.1 in /  1017.8 hPa ESE 12.7 mph /  20.4 km/h 12.7 mph /  20.4 km/h 38 % 0 in /  0.0 mm
14:27 85.3 °F /  29.6 °C 56.8 °F /  13.8 °C 30.1 in /  1017.8 hPa SSE 12.7 mph /  20.4 km/h 12.7 mph /  20.4 km/h 38 % 0 in /  0.0 mm
14:32 85.6 °F /  29.8 °C 57 °F /  13.9 °C 30.1 in /  1017.8 hPa ENE 12.7 mph /  20.4 km/h 12.7 mph /  20.4 km/h 38 % 0 in /  0.0 mm
14:37 86.2 °F /  30.1 °C 56.8 °F /  13.8 °C 30 in /  1016.8 hPa ESE 10.4 mph /  16.7 km/h 10.4 mph /  16.7 km/h 37 % 0 in /  0.0 mm
14:42 86.4 °F /  30.2 °C 56.3 °F /  13.5 °C 30 in /  1016.8 hPa SSW 8.1 mph /  13.0 km/h 8.1 mph /  13.0 km/h 36 % 0 in /  0.0 mm
14:47 86.9 °F /  30.5 °C 56.7 °F /  13.7 °C 30 in /  1016.8 hPa ESE 9.2 mph /  14.8 km/h 9.2 mph /  14.8 km/h 36 % 0 in /  0.0 mm
14:52 86.7 °F /  30.4 °C 55.8 °F /  13.2 °C 30 in /  1016.8 hPa SE 6.9 mph /  11.1 km/h 6.9 mph /  11.1 km/h 35 % 0 in /  0.0 mm
14:57 86.4 °F /  30.2 °C 54.7 °F /  12.6 °C 30 in /  1016.8 hPa ESE 9.2 mph /  14.8 km/h 9.2 mph /  14.8 km/h 34 % 0 in /  0.0 mm
15:02 86.5 °F /  30.3 °C 54 °F /  12.2 °C 30 in /  1016.8 hPa East 9.7 mph /  15.6 km/h 9.7 mph /  15.6 km/h 33 % 0 in /  0.0 mm
15:07 86.2 °F /  30.1 °C 53.8 °F /  12.1 °C 30 in /  1015.8 hPa ESE 10.4 mph /  16.7 km/h 10.4 mph /  16.7 km/h 33 % 0 in /  0.0 mm
15:08 86.2 °F /  30.1 °C 53.8 °F /  12.1 °C 30 in /  1015.8 hPa ESE 10.4 mph /  16.7 km/h 10.4 mph /  16.7 km/h 33 % 0 in /  0.0 mm
15:13 87.3 °F /  30.7 °C 54.7 °F /  12.6 °C 30 in /  1015.8 hPa ENE 10.4 mph /  16.7 km/h 10.4 mph /  16.7 km/h 33 % 0 in /  0.0 mm
15:18 86.9 °F /  30.5 °C 54.3 °F /  12.4 °C 30 in /  1015.8 hPa ESE 13.8 mph /  22.2 km/h 13.8 mph /  22.2 km/h 33 % 0 in /  0.0 mm
15:23 87.1 °F /  30.6 °C 54.5 °F /  12.5 °C 30 in /  1016.8 hPa ENE 8.1 mph /  13.0 km/h 8.1 mph /  13.0 km/h 33 % 0 in /  0.0 mm
15:28 87.1 °F /  30.6 °C 54.5 °F /  12.5 °C 30 in /  1016.8 hPa ESE 10.4 mph /  16.7 km/h 10.4 mph /  16.7 km/h 33 % 0 in /  0.0 mm
15:33 86.4 °F /  30.2 °C 54 °F /  12.2 °C 30 in /  1016.8 hPa ESE 17.3 mph /  27.8 km/h 17.3 mph /  27.8 km/h 33 % 0 in /  0.0 mm
15:34 86.4 °F /  30.2 °C 54 °F /  12.2 °C 30 in /  1016.8 hPa East 17.3 mph /  27.8 km/h 17.3 mph /  27.8 km/h 33 % 0 in /  0.0 mm
15:39 86.7 °F /  30.4 °C 54.1 °F /  12.3 °C 30 in /  1016.8 hPa NNE 12.7 mph /  20.4 km/h 12.7 mph /  20.4 km/h 33 % 0 in /  0.0 mm
15:44 87.1 °F /  30.6 °C 54.5 °F /  12.5 °C 30 in /  1016.8 hPa East 10.4 mph /  16.7 km/h 10.4 mph /  16.7 km/h 33 % 0 in /  0.0 mm
15:49 87.4 °F /  30.8 °C 54.9 °F /  12.7 °C 30 in /  1016.8 hPa ESE 12.7 mph /  20.4 km/h 12.7 mph /  20.4 km/h 33 % 0 in /  0.0 mm
15:54 87.8 °F /  31.0 °C 54.3 °F /  12.4 °C 30 in /  1016.8 hPa ESE 10.4 mph /  16.7 km/h 10.4 mph /  16.7 km/h 32 % 0 in /  0.0 mm
15:59 88.3 °F /  31.3 °C 55.6 °F /  13.1 °C 30 in /  1016.8 hPa ESE 8.5 mph /  13.7 km/h 8.5 mph /  13.7 km/h 33 % 0 in /  0.0 mm
16:04 87.3 °F /  30.7 °C 53.8 °F /  12.1 °C 30 in /  1016.8 hPa East 10.5 mph /  16.9 km/h 10.5 mph /  16.9 km/h 32 % 0 in /  0.0 mm
16:09 86.9 °F /  30.5 °C 54.3 °F /  12.4 °C 30 in /  1015.8 hPa SSE 9.2 mph /  14.8 km/h 9.2 mph /  14.8 km/h 33 % 0 in /  0.0 mm
16:14 87.8 °F /  31.0 °C 54.3 °F /  12.4 °C 30 in /  1015.8 hPa ESE 5.8 mph /  9.3 km/h 5.8 mph /  9.3 km/h 32 % 0 in /  0.0 mm
16:19 87.8 °F /  31.0 °C 54.3 °F /  12.4 °C 30 in /  1015.8 hPa East 6.9 mph /  11.1 km/h 6.9 mph /  11.1 km/h 32 % 0 in /  0.0 mm
16:24 88 °F /  31.1 °C 53.6 °F /  12.0 °C 30 in /  1015.8 hPa ESE 6.9 mph /  11.1 km/h 6.9 mph /  11.1 km/h 31 % 0 in /  0.0 mm
16:29 88.7 °F /  31.5 °C 54.1 °F /  12.3 °C 30 in /  1015.8 hPa ESE 8.1 mph /  13.0 km/h 8.1 mph /  13.0 km/h 31 % 0 in /  0.0 mm
16:34 87.4 °F /  30.8 °C 54 °F /  12.2 °C 30 in /  1015.8 hPa SE 6.9 mph /  11.1 km/h 6.9 mph /  11.1 km/h 32 % 0 in /  0.0 mm
16:40 87.3 °F /  30.7 °C 54 °F /  12.2 °C 30 in /  1015.8 hPa ESE 7 mph /  11.3 km/h 13 mph /  20.9 km/h 32 % 0 in /  0.0 mm
16:45 87.8 °F /  31.0 °C 54.1 °F /  12.3 °C 30 in /  1015.8 hPa ESE 6 mph /  9.7 km/h 8 mph /  12.9 km/h 32 % 0 in /  0.0 mm
16:50 88.2 °F /  31.2 °C 54.7 °F /  12.6 °C 30 in /  1015.8 hPa ESE 7.8 mph /  12.6 km/h 7.8 mph /  12.6 km/h 32 % 0 in /  0.0 mm
16:55 86.7 °F /  30.4 °C 54.1 °F /  12.3 °C 30 in /  1015.8 hPa ENE 9.2 mph /  14.8 km/h 9.2 mph /  14.8 km/h 33 % 0 in /  0.0 mm
17:00 87.1 °F /  30.6 °C 54.5 °F /  12.5 °C 30 in /  1015.8 hPa SSE 10.4 mph /  16.7 km/h 10.4 mph /  16.7 km/h 33 % 0 in /  0.0 mm
17:05 86.5 °F /  30.3 °C 54 °F /  12.2 °C 30 in /  1015.8 hPa East 13 mph /  20.9 km/h 13 mph /  20.9 km/h 33 % 0 in /  0.0 mm
17:10 86.4 °F /  30.2 °C 54 °F /  12.2 °C 30 in /  1016.8 hPa ESE 10.4 mph /  16.7 km/h 10.4 mph /  16.7 km/h 33 % 0 in /  0.0 mm
17:15 86.9 °F /  30.5 °C 53.4 °F /  11.9 °C 30 in /  1016.8 hPa ESE 10.5 mph /  16.9 km/h 10.5 mph /  16.9 km/h 32 % 0 in /  0.0 mm
17:20 86.5 °F /  30.3 °C 54.1 °F /  12.3 °C 30 in /  1016.8 hPa ESE 9 mph /  14.5 km/h 10 mph /  16.1 km/h 33 % 0 in /  0.0 mm
17:25 86.2 °F /  30.1 °C 53.8 °F /  12.1 °C 30 in /  1015.8 hPa East 9.2 mph /  14.8 km/h 9.2 mph /  14.8 km/h 33 % 0 in /  0.0 mm
17:30 86 °F /  30.0 °C 53.4 °F /  11.9 °C 30 in /  1015.8 hPa ESE 11.5 mph /  18.5 km/h 11.5 mph /  18.5 km/h 33 % 0 in /  0.0 mm
17:35 85.6 °F /  29.8 °C 53.2 °F /  11.8 °C 30 in /  1015.8 hPa East 8 mph /  12.9 km/h 12 mph /  19.3 km/h 33 % 0 in /  0.0 mm
17:40 86 °F /  30.0 °C 53.4 °F /  11.9 °C 30 in /  1014.8 hPa ESE 7 mph /  11.3 km/h 12 mph /  19.3 km/h 33 % 0 in /  0.0 mm
17:45 85.6 °F /  29.8 °C 54 °F /  12.2 °C 30 in /  1014.8 hPa ESE 12.7 mph /  20.4 km/h 12.7 mph /  20.4 km/h 34 % 0 in /  0.0 mm
17:50 85.6 °F /  29.8 °C 54 °F /  12.2 °C 30 in /  1014.8 hPa ENE 9.8 mph /  15.8 km/h 9.8 mph /  15.8 km/h 34 % 0 in /  0.0 mm
17:55 85.5 °F /  29.7 °C 54.7 °F /  12.6 °C 30 in /  1015.8 hPa NE 10.4 mph /  16.7 km/h 10.4 mph /  16.7 km/h 35 % 0 in /  0.0 mm
18:00 85.3 °F /  29.6 °C 54.5 °F /  12.5 °C 30 in /  1015.8 hPa SE 10.4 mph /  16.7 km/h 10.4 mph /  16.7 km/h 35 % 0 in /  0.0 mm
18:05 85.1 °F /  29.5 °C 54.3 °F /  12.4 °C 30 in /  1015.8 hPa ESE 10.4 mph /  16.7 km/h 10.4 mph /  16.7 km/h 35 % 0 in /  0.0 mm
18:10 84.9 °F /  29.4 °C 54.1 °F /  12.3 °C 30 in /  1014.8 hPa ESE 8 mph /  12.9 km/h 10 mph /  16.1 km/h 35 % 0 in /  0.0 mm
18:15 85.1 °F /  29.5 °C 54.3 °F /  12.4 °C 30 in /  1014.8 hPa East 6 mph /  9.7 km/h 10 mph /  16.1 km/h 35 % 0 in /  0.0 mm
18:20 84.9 °F /  29.4 °C 54.1 °F /  12.3 °C 30 in /  1014.8 hPa ESE 6 mph /  9.7 km/h 11 mph /  17.7 km/h 35 % 0 in /  0.0 mm
18:25 84.9 °F /  29.4 °C 54.1 °F /  12.3 °C 30 in /  1015.8 hPa ESE 8 mph /  12.9 km/h 12 mph /  19.3 km/h 35 % 0 in /  0.0 mm
18:30 84.4 °F /  29.1 °C 53.8 °F /  12.1 °C 30 in /  1015.8 hPa East 10.4 mph /  16.7 km/h 10.4 mph /  16.7 km/h 35 % 0 in /  0.0 mm
18:35 84.2 °F /  29.0 °C 53.6 °F /  12.0 °C 30 in /  1015.8 hPa ESE 8.1 mph /  13.0 km/h 8.1 mph /  13.0 km/h 35 % 0 in /  0.0 mm
18:40 84 °F /  28.9 °C 54.1 °F /  12.3 °C 30 in /  1015.8 hPa SE 8.1 mph /  13.0 km/h 8.1 mph /  13.0 km/h 36 % 0 in /  0.0 mm
18:45 84 °F /  28.9 °C 54.1 °F /  12.3 °C 30 in /  1015.8 hPa East 9.2 mph /  14.8 km/h 9.2 mph /  14.8 km/h 36 % 0 in /  0.0 mm
18:50 84.2 °F /  29.0 °C 53.6 °F /  12.0 °C 30 in /  1015.8 hPa SE 5.9 mph /  9.5 km/h 5.9 mph /  9.5 km/h 35 % 0 in /  0.0 mm
18:55 83.7 °F /  28.7 °C 53.1 °F /  11.7 °C 30 in /  1015.8 hPa ESE 7 mph /  11.3 km/h 10 mph /  16.1 km/h 35 % 0 in /  0.0 mm
19:00 83.5 °F /  28.6 °C 53.8 °F /  12.1 °C 30 in /  1015.8 hPa ESE 6 mph /  9.7 km/h 10 mph /  16.1 km/h 36 % 0 in /  0.0 mm
19:05 83.3 °F /  28.5 °C 52.9 °F /  11.6 °C 30 in /  1015.8 hPa ESE 6 mph /  9.7 km/h 10 mph /  16.1 km/h 35 % 0 in /  0.0 mm
19:10 83.3 °F /  28.5 °C 52.9 °F /  11.6 °C 30 in /  1015.8 hPa ESE 6 mph /  9.7 km/h 8 mph /  12.9 km/h 35 % 0 in /  0.0 mm
19:15 83.7 °F /  28.7 °C 53.1 °F /  11.7 °C 30 in /  1015.8 hPa ESE 5 mph /  8.0 km/h 8 mph /  12.9 km/h 35 % 0 in /  0.0 mm
19:20 83.8 °F /  28.8 °C 53.2 °F /  11.8 °C 30 in /  1015.8 hPa ESE 5.4 mph /  8.7 km/h 5.4 mph /  8.7 km/h 35 % 0 in /  0.0 mm
19:25 83.5 °F /  28.6 °C 52.9 °F /  11.6 °C 30 in /  1014.8 hPa ESE 6.9 mph /  11.1 km/h 6.9 mph /  11.1 km/h 35 % 0 in /  0.0 mm
19:30 83.1 °F /  28.4 °C 53.4 °F /  11.9 °C 30 in /  1014.8 hPa SSE 8.1 mph /  13.0 km/h 8.1 mph /  13.0 km/h 36 % 0 in /  0.0 mm
19:35 82.9 °F /  28.3 °C 53.2 °F /  11.8 °C 30 in /  1014.8 hPa ENE 10.4 mph /  16.7 km/h 10.4 mph /  16.7 km/h 36 % 0 in /  0.0 mm
19:40 82.9 °F /  28.3 °C 54 °F /  12.2 °C 30 in /  1015.8 hPa ESE 5.9 mph /  9.5 km/h 5.9 mph /  9.5 km/h 37 % 0 in /  0.0 mm
19:45 82.8 °F /  28.2 °C 53.8 °F /  12.1 °C 30 in /  1015.8 hPa ESE 6.9 mph /  11.1 km/h 6.9 mph /  11.1 km/h 37 % 0 in /  0.0 mm
19:50 82.9 °F /  28.3 °C 54 °F /  12.2 °C 30 in /  1015.8 hPa South 5.8 mph /  9.3 km/h 5.8 mph /  9.3 km/h 37 % 0 in /  0.0 mm
19:55 82.9 °F /  28.3 °C 53.2 °F /  11.8 °C 30 in /  1015.8 hPa South 4.6 mph /  7.4 km/h 4.6 mph /  7.4 km/h 36 % 0 in /  0.0 mm
20:00 82.8 °F /  28.2 °C 53.8 °F /  12.1 °C 30 in /  1015.8 hPa SSW 2.3 mph /  3.7 km/h 4 mph /  6.4 km/h 37 % 0 in /  0.0 mm
20:05 82 °F /  27.8 °C 54 °F /  12.2 °C 30 in /  1015.8 hPa SE 7 mph /  11.3 km/h 7 mph /  11.3 km/h 38 % 0 in /  0.0 mm
20:10 81.5 °F /  27.5 °C 53.4 °F /  11.9 °C 30 in /  1015.8 hPa East 5.8 mph /  9.3 km/h 5.8 mph /  9.3 km/h 38 % 0 in /  0.0 mm
20:15 81.1 °F /  27.3 °C 53.8 °F /  12.1 °C 30 in /  1015.8 hPa East 6.4 mph /  10.3 km/h 6.4 mph /  10.3 km/h 39 % 0 in /  0.0 mm
20:20 80.8 °F /  27.1 °C 54.1 °F /  12.3 °C 30 in /  1015.8 hPa ESE 6.2 mph /  10.0 km/h 6.2 mph /  10.0 km/h 40 % 0 in /  0.0 mm
20:25 80.4 °F /  26.9 °C 55.2 °F /  12.9 °C 30 in /  1015.8 hPa ESE 6.9 mph /  11.1 km/h 6.9 mph /  11.1 km/h 42 % 0 in /  0.0 mm
20:30 80.1 °F /  26.7 °C 55.6 °F /  13.1 °C 30 in /  1015.8 hPa East 6.9 mph /  11.1 km/h 6.9 mph /  11.1 km/h 43 % 0 in /  0.0 mm
20:35 79.7 °F /  26.5 °C 55.2 °F /  12.9 °C 30 in /  1015.8 hPa ESE 5.8 mph /  9.3 km/h 5.8 mph /  9.3 km/h 43 % 0 in /  0.0 mm
20:40 79.5 °F /  26.4 °C 56.3 °F /  13.5 °C 30 in /  1014.8 hPa ESE 3 mph /  4.8 km/h 7 mph /  11.3 km/h 45 % 0 in /  0.0 mm
20:45 79.2 °F /  26.2 °C 56.7 °F /  13.7 °C 30 in /  1014.8 hPa SE 5.8 mph /  9.3 km/h 5.8 mph /  9.3 km/h 46 % 0 in /  0.0 mm
20:50 78.8 °F /  26.0 °C 57.4 °F /  14.1 °C 30 in /  1014.8 hPa ESE 5.8 mph /  9.3 km/h 5.8 mph /  9.3 km/h 48 % 0 in /  0.0 mm
20:55 78.4 °F /  25.8 °C 57.7 °F /  14.3 °C 30 in /  1015.8 hPa East 8.1 mph /  13.0 km/h 8.1 mph /  13.0 km/h 49 % 0 in /  0.0 mm
21:00 78.3 °F /  25.7 °C 58.1 °F /  14.5 °C 30 in /  1015.8 hPa ENE 5.8 mph /  9.3 km/h 5.8 mph /  9.3 km/h 50 % 0 in /  0.0 mm
21:05 78.1 °F /  25.6 °C 58.5 °F /  14.7 °C 30 in /  1015.8 hPa ENE 5.8 mph /  9.3 km/h 5.8 mph /  9.3 km/h 51 % 0 in /  0.0 mm
21:10 77.9 °F /  25.5 °C 58.3 °F /  14.6 °C 30 in /  1015.8 hPa ESE 3.5 mph /  5.6 km/h 3.5 mph /  5.6 km/h 51 % 0 in /  0.0 mm
21:15 77.7 °F /  25.4 °C 58.6 °F /  14.8 °C 30 in /  1015.8 hPa ESE 2.6 mph /  4.2 km/h 2.6 mph /  4.2 km/h 52 % 0 in /  0.0 mm
21:20 77.5 °F /  25.3 °C 59.2 °F /  15.1 °C 30 in /  1015.8 hPa ENE 3.3 mph /  5.3 km/h 3.6 mph /  5.8 km/h 53 % 0 in /  0.0 mm
21:25 77.4 °F /  25.2 °C 58.8 °F /  14.9 °C 30 in /  1015.8 hPa East 4.6 mph /  7.4 km/h 4.6 mph /  7.4 km/h 53 % 0 in /  0.0 mm
21:30 77.2 °F /  25.1 °C 58.6 °F /  14.8 °C 30 in /  1015.8 hPa East 2 mph /  3.2 km/h 5 mph /  8.0 km/h 53 % 0 in /  0.0 mm
21:35 77 °F /  25.0 °C 59.2 °F /  15.1 °C 30 in /  1015.8 hPa ESE 3.5 mph /  5.6 km/h 3.5 mph /  5.6 km/h 54 % 0 in /  0.0 mm
21:40 76.8 °F /  24.9 °C 59.9 °F /  15.5 °C 30 in /  1016.8 hPa ENE 4.6 mph /  7.4 km/h 4.6 mph /  7.4 km/h 56 % 0 in /  0.0 mm
21:45 76.5 °F /  24.7 °C 60.6 °F /  15.9 °C 30 in /  1016.8 hPa East 4.6 mph /  7.4 km/h 4.6 mph /  7.4 km/h 58 % 0 in /  0.0 mm
21:50 71.6 °F /  22.0 °C 61.7 °F /  16.5 °C 30 in /  1015.8 hPa Calm     71 % 0 in /  0.0 mm
21:51 76.5 °F /  24.7 °C 61.2 °F /  16.2 °C 30 in /  1016.8 hPa ESE 4.6 mph /  7.4 km/h 4.6 mph /  7.4 km/h 59 % 0 in /  0.0 mm
21:56 76.3 °F /  24.6 °C 60.4 °F /  15.8 °C 30 in /  1016.8 hPa ESE 3.5 mph /  5.6 km/h 3.5 mph /  5.6 km/h 58 % 0 in /  0.0 mm
22:00 71.4 °F /  21.9 °C 61.9 °F /  16.6 °C 30 in /  1015.8 hPa Calm     72 % 0 in /  0.0 mm
22:01 76.3 °F /  24.6 °C 61.3 °F /  16.3 °C 30 in /  1016.8 hPa ENE 3.6 mph /  5.8 km/h 3.6 mph /  5.8 km/h 60 % 0 in /  0.0 mm
22:06 76.1 °F /  24.5 °C 61.2 °F /  16.2 °C 30 in /  1016.8 hPa ESE 3.6 mph /  5.8 km/h 3.6 mph /  5.8 km/h 60 % 0 in /  0.0 mm
22:10 71.4 °F /  21.9 °C 61.9 °F /  16.6 °C 30 in /  1015.8 hPa Calm     72 % 0 in /  0.0 mm
22:11 75.9 °F /  24.4 °C 61 °F /  16.1 °C 30 in /  1016.8 hPa East 4.6 mph /  7.4 km/h 4.6 mph /  7.4 km/h 60 % 0 in /  0.0 mm
22:17 75.9 °F /  24.4 °C 61 °F /  16.1 °C 30 in /  1016.8 hPa SE 4.6 mph /  7.4 km/h 4.6 mph /  7.4 km/h 60 % 0 in /  0.0 mm
22:20 71.4 °F /  21.9 °C 61.9 °F /  16.6 °C 30 in /  1015.8 hPa Calm     72 % 0 in /  0.0 mm
22:22 75.7 °F /  24.3 °C 61.3 °F /  16.3 °C 30 in /  1016.8 hPa SE 4.6 mph /  7.4 km/h 4.6 mph /  7.4 km/h 61 % 0 in /  0.0 mm
22:27 75.6 °F /  24.2 °C 60.6 °F /  15.9 °C 30 in /  1016.8 hPa SW 2.4 mph /  3.9 km/h   60 % 0 in /  0.0 mm
22:30 71.2 °F /  21.8 °C 61.7 °F /  16.5 °C 30 in /  1014.8 hPa Calm     72 % 0 in /  0.0 mm
22:33 75.6 °F /  24.2 °C 60.3 °F /  15.7 °C 30 in /  1016.8 hPa SW 1.4 mph /  2.3 km/h   59 % 0 in /  0.0 mm
22:37 75.4 °F /  24.1 °C 60.4 °F /  15.8 °C 30.1 in /  1017.8 hPa SW 1.2 mph /  1.9 km/h   60 % 0 in /  0.0 mm
22:40 71.1 °F /  21.7 °C 62.1 °F /  16.7 °C 30 in /  1015.8 hPa Calm     73 % 0 in /  0.0 mm
22:43 75.2 °F /  24.0 °C 60.4 °F /  15.8 °C 30.1 in /  1017.8 hPa Calm     60 % 0 in /  0.0 mm
22:47 75.2 °F /  24.0 °C 60.4 °F /  15.8 °C 30.1 in /  1017.8 hPa Calm     60 % 0 in /  0.0 mm
22:50 71.1 °F /  21.7 °C 62.1 °F /  16.7 °C 30 in /  1015.8 hPa Calm     73 % 0 in /  0.0 mm
22:53 75.2 °F /  24.0 °C 60.8 °F /  16.0 °C 30 in /  1016.8 hPa ENE 2.3 mph /  3.7 km/h 2.3 mph /  3.7 km/h 61 % 0 in /  0.0 mm
22:58 75 °F /  23.9 °C 61.2 °F /  16.2 °C 30 in /  1016.8 hPa WNW 1.2 mph /  1.9 km/h   62 % 0 in /  0.0 mm
23:00 70.7 °F /  21.5 °C 61.5 °F /  16.4 °C 30 in /  1015.8 hPa Calm     73 % 0 in /  0.0 mm
23:03 75 °F /  23.9 °C 61.2 °F /  16.2 °C 30 in /  1016.8 hPa NE 1.4 mph /  2.3 km/h 1.4 mph /  2.3 km/h 62 % 0 in /  0.0 mm
23:08 75 °F /  23.9 °C 61.2 °F /  16.2 °C 30 in /  1016.8 hPa NNE 1.2 mph /  1.9 km/h 1.4 mph /  2.3 km/h 62 % 0 in /  0.0 mm
23:10 70.7 °F /  21.5 °C 61.5 °F /  16.4 °C 30 in /  1015.8 hPa Calm   1 mph /  1.6 km/h 73 % 0 in /  0.0 mm
23:13 75 °F /  23.9 °C 61.5 °F /  16.4 °C 30 in /  1016.8 hPa NE 2.3 mph /  3.7 km/h 2.3 mph /  3.7 km/h 63 % 0 in /  0.0 mm
23:18 74.8 °F /  23.8 °C 61.3 °F /  16.3 °C 30 in /  1016.8 hPa Calm     63 % 0 in /  0.0 mm
23:20 70.5 °F /  21.4 °C 61.9 °F /  16.6 °C 30 in /  1015.8 hPa Calm     74 % 0 in /  0.0 mm
23:23 74.8 °F /  23.8 °C 61.3 °F /  16.3 °C 30 in /  1016.8 hPa NE 2.3 mph /  3.7 km/h 2.3 mph /  3.7 km/h 63 % 0 in /  0.0 mm
23:28 74.8 °F /  23.8 °C 61.3 °F /  16.3 °C 30 in /  1016.8 hPa NNE 1.2 mph /  1.9 km/h 1.2 mph /  1.9 km/h 63 % 0 in /  0.0 mm
23:30 70.3 °F /  21.3 °C 61.7 °F /  16.5 °C 30 in /  1015.8 hPa Calm     74 % 0 in /  0.0 mm
23:33 74.7 °F /  23.7 °C 61.2 °F /  16.2 °C 30 in /  1016.8 hPa NNE 2.3 mph /  3.7 km/h 2.3 mph /  3.7 km/h 63 % 0 in /  0.0 mm
23:38 74.7 °F /  23.7 °C 61.2 °F /  16.2 °C 30 in /  1015.8 hPa NNE 2.3 mph /  3.7 km/h   63 % 0 in /  0.0 mm
23:40 70.2 °F /  21.2 °C 61.5 °F /  16.4 °C 30 in /  1015.8 hPa Calm     74 % 0 in /  0.0 mm
23:44 74.5 °F /  23.6 °C 61.2 °F /  16.2 °C 30 in /  1015.8 hPa NNE 1.2 mph /  1.9 km/h   63 % 0 in /  0.0 mm
23:49 74.3 °F /  23.5 °C 61 °F /  16.1 °C 30 in /  1015.8 hPa NNE 2.4 mph /  3.9 km/h 2.4 mph /  3.9 km/h 63 % 0 in /  0.0 mm
23:50 69.8 °F /  21.0 °C 61.2 °F /  16.2 °C 30 in /  1015.8 hPa Calm     74 % 0 in /  0.0 mm
23:54 74.1 °F /  23.4 °C 61.2 °F /  16.2 °C 30 in /  1015.8 hPa ENE 2.3 mph /  3.7 km/h 2.3 mph /  3.7 km/h 64 % 0 in /  0.0 mm
23:59 74.1 °F /  23.4 °C 61.2 °F /  16.2 °C 30 in /  1015.8 hPa NNE 2.3 mph /  3.7 km/h 2.3 mph /  3.7 km/h 64 % 0 in /  0.0 mm
Meteo Sesrovires
Elogis d' Weather Underground - 3.5 mb

Guio original per  Jim McMurry - jmcmurry@mwt.net Adaptat per a la plantilla per  Wim van der Kuil - Leuven-Template.eu

Trobareu la nostra informacio del temps tambe a:

Weather Underground

AWEKAS